createdAt,value
2018-12-11T00:00:57.266Z,68.62
2018-12-11T00:03:25.084Z,68.37
2018-12-11T00:05:52.851Z,68.58
2018-12-11T00:08:20.675Z,68.56
2018-12-11T00:10:48.512Z,68.53
2018-12-11T00:13:16.285Z,68.34
2018-12-11T00:15:44.015Z,68.28
2018-12-11T00:18:11.808Z,68.42
2018-12-11T00:20:39.593Z,68.54
2018-12-11T00:23:07.377Z,68.17
2018-12-11T00:25:35.152Z,68.53
2018-12-11T00:28:02.959Z,69.51
2018-12-11T00:30:30.777Z,68.26
2018-12-11T00:32:58.502Z,68.10
2018-12-11T00:35:26.310Z,66.43
2018-12-11T00:37:54.053Z,65.12
2018-12-11T00:40:21.798Z,65.52
2018-12-11T00:42:49.572Z,66.16
2018-12-11T00:45:17.333Z,66.77
2018-12-11T00:47:45.106Z,66.77
2018-12-11T00:50:12.861Z,67.33
2018-12-11T00:52:40.649Z,67.91
2018-12-11T00:55:08.427Z,68.12
2018-12-11T00:57:36.184Z,67.02
2018-12-11T01:00:06.065Z,65.77
2018-12-11T01:02:33.877Z,66.24
2018-12-11T01:05:01.620Z,66.61
2018-12-11T01:07:29.372Z,66.70
2018-12-11T01:09:57.101Z,68.97
2018-12-11T01:12:24.828Z,72.33
2018-12-11T01:14:52.577Z,73.08
2018-12-11T01:17:20.309Z,67.49
2018-12-11T01:19:48.125Z,68.05
2018-12-11T01:22:15.911Z,65.98
2018-12-11T01:24:43.744Z,66.77
2018-12-11T01:27:11.505Z,67.12
2018-12-11T01:29:39.286Z,68.22
2018-12-11T01:32:07.004Z,69.32
2018-12-11T01:34:34.712Z,70.25
2018-12-11T01:37:02.449Z,70.95
2018-12-11T01:39:30.221Z,72.26
2018-12-11T01:41:57.929Z,72.39
2018-12-11T01:44:25.676Z,72.52
2018-12-11T01:46:53.457Z,72.35
2018-12-11T01:49:21.170Z,72.62
2018-12-11T01:51:48.986Z,72.68
2018-12-11T01:54:16.719Z,72.41
2018-12-11T01:56:44.553Z,72.23
2018-12-11T01:59:12.285Z,71.83
2018-12-11T02:01:40.021Z,71.01
2018-12-11T02:04:07.804Z,69.88
2018-12-11T02:06:35.553Z,69.30
2018-12-11T02:09:04.965Z,69.06
2018-12-11T02:11:33.224Z,69.16
2018-12-11T02:14:00.980Z,69.30
2018-12-11T02:16:28.769Z,69.58
2018-12-11T02:18:56.538Z,69.85
2018-12-11T02:21:24.306Z,69.58
2018-12-11T02:23:52.049Z,69.31
2018-12-11T02:26:19.894Z,69.32
2018-12-11T02:28:47.616Z,69.93
2018-12-11T02:31:15.440Z,71.32
2018-12-11T02:33:43.175Z,72.53
2018-12-11T02:36:10.931Z,73.51
2018-12-11T02:38:38.710Z,73.72
2018-12-11T02:41:06.880Z,73.20
2018-12-11T02:43:34.689Z,72.60
2018-12-11T02:46:02.443Z,72.80
2018-12-11T02:48:30.229Z,72.47
2018-12-11T02:50:58.026Z,71.78
2018-12-11T02:53:25.803Z,71.32
2018-12-11T02:55:53.586Z,71.30
2018-12-11T02:58:21.344Z,71.60
2018-12-11T03:00:49.108Z,71.84
2018-12-11T03:03:16.874Z,71.63
2018-12-11T03:05:44.611Z,71.14
2018-12-11T03:08:12.385Z,70.91
2018-12-11T03:10:40.170Z,71.33
2018-12-11T03:13:07.976Z,71.85
2018-12-11T03:15:35.731Z,72.28
2018-12-11T03:18:03.507Z,71.37
2018-12-11T03:20:31.263Z,71.11
2018-12-11T03:22:59.028Z,71.44
2018-12-11T03:25:26.782Z,71.59
2018-12-11T03:27:54.513Z,72.30
2018-12-11T03:30:22.281Z,73.30
2018-12-11T03:32:50.017Z,74.84
2018-12-11T03:35:17.810Z,74.59
2018-12-11T03:37:45.563Z,71.54
2018-12-11T03:40:13.572Z,68.97
2018-12-11T03:42:41.348Z,67.09
2018-12-11T03:45:09.265Z,65.36
2018-12-11T03:47:37.368Z,66.04
2018-12-11T03:50:05.488Z,66.73
2018-12-11T03:52:33.292Z,67.15
2018-12-11T03:55:01.089Z,68.13
2018-12-11T03:57:28.858Z,68.74
2018-12-11T03:59:56.689Z,69.03
2018-12-11T04:02:24.528Z,69.73
2018-12-11T04:04:52.302Z,70.52
2018-12-11T04:07:20.086Z,70.39
2018-12-11T04:09:47.837Z,70.82
2018-12-11T04:12:15.633Z,71.63
2018-12-11T04:14:43.725Z,72.33
2018-12-11T04:17:11.527Z,72.61
2018-12-11T04:19:39.309Z,72.39
2018-12-11T04:22:07.121Z,72.20
2018-12-11T04:24:34.888Z,71.67
2018-12-11T04:27:02.687Z,71.44
2018-12-11T04:29:30.409Z,71.27
2018-12-11T04:31:58.121Z,71.05
2018-12-11T04:34:25.828Z,70.51
2018-12-11T04:36:53.589Z,70.41
2018-12-11T04:39:21.397Z,70.38
2018-12-11T04:41:49.176Z,70.61
2018-12-11T04:44:16.907Z,71.45
2018-12-11T04:46:44.700Z,71.84
2018-12-11T04:49:12.516Z,72.39
2018-12-11T04:51:40.303Z,72.82
2018-12-11T04:54:08.090Z,72.08
2018-12-11T04:56:35.830Z,72.36
2018-12-11T04:59:04.664Z,72.53
2018-12-11T05:01:32.484Z,72.51
2018-12-11T05:04:00.326Z,73.00
2018-12-11T05:06:28.067Z,73.97
2018-12-11T05:08:55.844Z,72.90
2018-12-11T05:11:23.633Z,73.31
2018-12-11T05:13:51.361Z,73.96
2018-12-11T05:16:19.107Z,73.87
2018-12-11T05:18:46.849Z,74.09
2018-12-11T05:21:14.658Z,74.49
2018-12-11T05:23:42.498Z,74.31
2018-12-11T05:26:10.274Z,72.78
2018-12-11T05:28:38.062Z,70.86
2018-12-11T05:31:05.977Z,67.13
2018-12-11T05:33:33.738Z,66.26
2018-12-11T05:36:01.514Z,66.25
2018-12-11T05:38:29.333Z,67.07
2018-12-11T05:40:57.095Z,67.87
2018-12-11T05:43:24.857Z,68.64
2018-12-11T05:45:52.600Z,69.24
2018-12-11T05:48:20.416Z,70.78
2018-12-11T05:50:48.190Z,72.15
2018-12-11T05:53:15.959Z,72.30
2018-12-11T05:55:43.714Z,72.56
2018-12-11T05:58:11.455Z,73.08
2018-12-11T06:00:39.217Z,73.29
2018-12-11T06:03:06.989Z,73.23
2018-12-11T06:05:34.764Z,73.31
2018-12-11T06:08:02.890Z,73.10
2018-12-11T06:10:30.733Z,73.10
2018-12-11T06:12:58.506Z,73.50
2018-12-11T06:15:26.273Z,74.20
2018-12-11T06:17:54.028Z,73.92
2018-12-11T06:20:21.813Z,73.50
2018-12-11T06:22:49.623Z,71.74
2018-12-11T06:25:17.393Z,71.31
2018-12-11T06:27:45.842Z,70.88
2018-12-11T06:30:13.610Z,70.93
2018-12-11T06:32:41.368Z,70.56
2018-12-11T06:35:09.169Z,70.26
2018-12-11T06:37:36.889Z,70.67
2018-12-11T06:40:05.333Z,71.04
2018-12-11T06:42:33.113Z,71.31
2018-12-11T06:45:00.887Z,72.05
2018-12-11T06:47:28.657Z,72.76
2018-12-11T06:49:56.365Z,72.78
2018-12-11T06:52:24.128Z,72.80
2018-12-11T06:54:51.835Z,72.97
2018-12-11T06:57:19.616Z,73.17
2018-12-11T06:59:47.384Z,73.20
2018-12-11T07:02:15.147Z,73.28
2018-12-11T07:04:43.040Z,72.53
2018-12-11T07:07:10.855Z,71.78
2018-12-11T07:09:38.653Z,71.74
2018-12-11T07:12:06.417Z,71.54
2018-12-11T07:14:35.477Z,70.93
2018-12-11T07:17:03.332Z,70.65
2018-12-11T07:19:31.204Z,71.39
2018-12-11T07:21:59.992Z,71.04
2018-12-11T07:24:27.778Z,71.54
2018-12-11T07:26:55.539Z,71.30
2018-12-11T07:29:23.351Z,71.68
2018-12-11T07:31:51.093Z,72.81
2018-12-11T07:34:19.337Z,73.13
2018-12-11T07:36:47.184Z,71.58
2018-12-11T07:39:15.231Z,68.60
2018-12-11T07:41:43.117Z,67.17
2018-12-11T07:44:10.880Z,66.85
2018-12-11T07:46:38.622Z,66.20
2018-12-11T07:49:06.364Z,66.00
2018-12-11T07:51:34.128Z,67.40
2018-12-11T07:54:01.850Z,67.36
2018-12-11T07:56:29.575Z,67.91
2018-12-11T07:58:57.364Z,68.42
2018-12-11T08:01:25.089Z,69.41
2018-12-11T08:03:52.840Z,69.47
2018-12-11T08:06:20.590Z,69.88
2018-12-11T08:08:48.413Z,70.00
2018-12-11T08:11:16.112Z,71.04
2018-12-11T08:13:43.835Z,71.43
2018-12-11T08:16:11.940Z,71.12
2018-12-11T08:18:39.796Z,71.69
2018-12-11T08:21:07.540Z,71.56
2018-12-11T08:23:35.302Z,71.58
2018-12-11T08:26:03.114Z,71.65
2018-12-11T08:28:30.908Z,70.64
2018-12-11T08:30:58.659Z,70.06
2018-12-11T08:33:26.420Z,69.85
2018-12-11T08:35:54.171Z,69.38
2018-12-11T08:38:21.997Z,69.29
2018-12-11T08:40:49.817Z,68.68
2018-12-11T08:43:17.608Z,68.43
2018-12-11T08:45:47.495Z,68.06
2018-12-11T08:48:15.249Z,67.37
2018-12-11T08:50:43.032Z,67.16
2018-12-11T08:53:10.824Z,66.71
2018-12-11T08:55:38.637Z,66.55
2018-12-11T08:58:06.360Z,65.94
2018-12-11T09:00:34.126Z,65.45
2018-12-11T09:03:01.949Z,65.31
2018-12-11T09:05:29.734Z,65.78
2018-12-11T09:07:57.493Z,66.16
2018-12-11T09:10:25.248Z,66.80
2018-12-11T09:12:53.019Z,66.63
2018-12-11T09:15:20.770Z,66.55
2018-12-11T09:17:48.623Z,66.75
2018-12-11T09:20:16.366Z,66.32
2018-12-11T09:22:44.136Z,66.00
2018-12-11T09:25:11.983Z,66.31
2018-12-11T09:27:39.825Z,66.61
2018-12-11T09:30:08.541Z,66.42
2018-12-11T09:32:36.355Z,66.34
2018-12-11T09:35:04.797Z,66.54
2018-12-11T09:37:32.537Z,66.46
2018-12-11T09:40:00.330Z,66.93
2018-12-11T09:42:28.202Z,67.20
2018-12-11T09:44:55.997Z,67.33
2018-12-11T09:47:23.736Z,67.28
2018-12-11T09:49:51.524Z,67.28
2018-12-11T09:52:19.281Z,67.60
2018-12-11T09:54:47.088Z,67.94
2018-12-11T09:57:14.867Z,68.21
2018-12-11T09:59:42.624Z,68.22
2018-12-11T10:02:10.424Z,68.44
2018-12-11T10:04:38.173Z,68.04
2018-12-11T10:07:05.977Z,67.43
2018-12-11T10:09:33.732Z,66.92
2018-12-11T10:12:01.500Z,67.01
2018-12-11T10:14:29.323Z,66.78
2018-12-11T10:16:57.124Z,66.42
2018-12-11T10:19:24.866Z,66.50
2018-12-11T10:21:52.654Z,66.55
2018-12-11T10:24:24.027Z,66.37
2018-12-11T10:26:52.566Z,65.89
2018-12-11T10:29:20.353Z,66.00
2018-12-11T10:31:48.154Z,65.51
2018-12-11T10:34:15.966Z,65.61
2018-12-11T10:36:43.830Z,65.67
2018-12-11T10:39:12.296Z,65.61
2018-12-11T10:41:40.071Z,65.75
2018-12-11T10:44:07.857Z,66.22
2018-12-11T10:46:35.657Z,65.87
2018-12-11T10:49:03.397Z,65.14
2018-12-11T10:51:31.105Z,65.02
2018-12-11T10:53:58.867Z,65.16
2018-12-11T10:56:26.729Z,65.33
2018-12-11T10:58:54.529Z,65.38
2018-12-11T11:01:26.624Z,65.27
2018-12-11T11:03:54.502Z,65.43
2018-12-11T11:06:22.324Z,65.53
2018-12-11T11:08:50.267Z,65.60
2018-12-11T11:11:18.711Z,65.90
2018-12-11T11:13:46.565Z,65.52
2018-12-11T11:16:14.782Z,65.66
2018-12-11T11:18:44.367Z,65.08
2018-12-11T11:21:12.367Z,65.35
2018-12-11T11:23:40.378Z,65.18
2018-12-11T11:26:08.115Z,65.63
2018-12-11T11:28:35.934Z,65.73
2018-12-11T11:31:03.721Z,65.37
2018-12-11T11:33:31.538Z,65.73
2018-12-11T11:35:59.334Z,65.86
2018-12-11T11:38:27.146Z,65.82
2018-12-11T11:40:54.904Z,65.38
2018-12-11T11:43:22.656Z,64.82
2018-12-11T11:45:50.423Z,64.41
2018-12-11T11:48:18.184Z,63.45
2018-12-11T11:50:46.008Z,62.50
2018-12-11T11:53:14.036Z,62.94
2018-12-11T11:55:41.934Z,62.74
2018-12-11T11:58:09.672Z,62.48
2018-12-11T12:00:37.449Z,62.66
2018-12-11T12:03:05.256Z,62.53
2018-12-11T12:05:33.105Z,62.42
2018-12-11T12:08:00.872Z,62.53
2018-12-11T12:10:28.681Z,62.88
2018-12-11T12:12:56.436Z,63.33
2018-12-11T12:15:24.249Z,64.43
2018-12-11T12:17:51.977Z,63.91
2018-12-11T12:20:20.049Z,63.75
2018-12-11T12:22:47.830Z,64.33
2018-12-11T12:25:15.608Z,63.81
2018-12-11T12:27:43.386Z,64.24
2018-12-11T12:30:11.204Z,63.69
2018-12-11T12:32:38.992Z,63.72
2018-12-11T12:35:07.199Z,63.37
2018-12-11T12:37:34.958Z,63.55
2018-12-11T12:40:02.813Z,62.94
2018-12-11T12:42:30.575Z,62.86
2018-12-11T12:44:58.375Z,62.89
2018-12-11T12:47:26.157Z,63.02
2018-12-11T12:49:53.937Z,63.09
2018-12-11T12:52:21.693Z,63.16
2018-12-11T12:54:49.469Z,63.25
2018-12-11T12:57:17.216Z,63.40
2018-12-11T12:59:45.110Z,63.80
2018-12-11T13:02:12.879Z,64.28
2018-12-11T13:04:40.661Z,64.53
2018-12-11T13:07:08.404Z,64.72
2018-12-11T13:09:36.140Z,65.61
2018-12-11T13:12:04.027Z,65.58
2018-12-11T13:14:31.764Z,66.00
2018-12-11T13:16:59.571Z,65.45
2018-12-11T13:19:27.349Z,65.75
2018-12-11T13:21:55.139Z,64.93
2018-12-11T13:24:22.934Z,64.36
2018-12-11T13:26:50.834Z,63.97
2018-12-11T13:29:18.625Z,64.52
2018-12-11T13:31:46.378Z,64.86
2018-12-11T13:34:14.151Z,65.01
2018-12-11T13:36:41.928Z,64.78
2018-12-11T13:39:09.816Z,64.88
2018-12-11T13:41:37.623Z,65.36
2018-12-11T13:44:05.649Z,65.27
2018-12-11T13:46:33.993Z,65.70
2018-12-11T13:49:01.902Z,65.71
2018-12-11T13:51:29.613Z,65.61
2018-12-11T13:53:58.197Z,65.98
2018-12-11T13:56:25.968Z,65.85
2018-12-11T13:58:53.736Z,65.99
2018-12-11T14:01:21.516Z,65.79
2018-12-11T14:03:49.248Z,65.65
2018-12-11T14:06:17.015Z,66.16
2018-12-11T14:08:44.847Z,66.31
2018-12-11T14:11:12.613Z,66.31
2018-12-11T14:13:41.035Z,66.73
2018-12-11T14:16:08.841Z,66.31
2018-12-11T14:18:37.592Z,66.36
2018-12-11T14:21:05.534Z,66.70
2018-12-11T14:23:33.357Z,69.14
2018-12-11T14:26:01.175Z,66.91
2018-12-11T14:28:28.908Z,66.63
2018-12-11T14:30:56.796Z,66.31
2018-12-11T14:33:24.554Z,66.12
2018-12-11T14:35:52.301Z,66.22
2018-12-11T14:38:20.653Z,66.13
2018-12-11T14:40:49.596Z,66.32
2018-12-11T14:43:17.407Z,66.72
2018-12-11T14:45:45.247Z,66.94
2018-12-11T14:48:13.002Z,67.05
2018-12-11T14:50:40.775Z,66.98
2018-12-11T14:53:08.574Z,66.71
2018-12-11T14:55:36.362Z,66.63
2018-12-11T14:58:04.172Z,66.77
2018-12-11T15:00:31.925Z,66.40
2018-12-11T15:03:01.319Z,67.19
2018-12-11T15:05:29.251Z,67.07
2018-12-11T15:07:57.005Z,67.24
2018-12-11T15:10:25.050Z,67.33
2018-12-11T15:12:53.061Z,67.00
2018-12-11T15:15:20.916Z,66.93
2018-12-11T15:17:48.782Z,67.08
2018-12-11T15:20:16.524Z,67.19
2018-12-11T15:22:44.316Z,67.85
2018-12-11T15:25:12.168Z,68.10
2018-12-11T15:27:40.043Z,67.73
2018-12-11T15:30:08.157Z,67.55
2018-12-11T15:32:35.937Z,67.58
2018-12-11T15:35:03.921Z,67.63
2018-12-11T15:37:31.654Z,68.17
2018-12-11T15:39:59.459Z,67.92
2018-12-11T15:42:27.282Z,68.21
2018-12-11T15:44:55.013Z,67.87
2018-12-11T15:47:22.794Z,67.69
2018-12-11T15:49:50.610Z,67.68
2018-12-11T15:52:18.404Z,67.78
2018-12-11T15:54:46.932Z,67.84
2018-12-11T15:57:14.705Z,67.99
2018-12-11T15:59:42.442Z,68.18
2018-12-11T16:02:10.205Z,68.42
2018-12-11T16:04:37.974Z,68.27
2018-12-11T16:07:05.802Z,68.10
2018-12-11T16:09:36.778Z,68.14
2018-12-11T16:12:05.444Z,67.64
2018-12-11T16:14:33.353Z,68.14
2018-12-11T16:17:01.177Z,68.04
2018-12-11T16:19:30.462Z,67.69
2018-12-11T16:21:58.603Z,67.67
2018-12-11T16:24:26.369Z,67.52
2018-12-11T16:26:54.144Z,67.65
2018-12-11T16:29:22.147Z,67.97
2018-12-11T16:31:50.789Z,68.21
2018-12-11T16:34:18.588Z,68.08
2018-12-11T16:36:46.494Z,67.95
2018-12-11T16:39:14.237Z,67.67
2018-12-11T16:41:42.973Z,67.72
2018-12-11T16:44:10.753Z,68.20
2018-12-11T16:46:38.546Z,68.35
2018-12-11T16:49:06.260Z,67.91
2018-12-11T16:51:34.934Z,68.26
2018-12-11T16:54:02.840Z,68.27
2018-12-11T16:56:31.053Z,68.24
2018-12-11T16:58:58.772Z,67.92
2018-12-11T17:01:26.845Z,68.29
2018-12-11T17:03:54.737Z,68.67
2018-12-11T17:06:22.536Z,68.94
2018-12-11T17:08:50.384Z,69.10
2018-12-11T17:11:18.109Z,69.03
2018-12-11T17:13:45.891Z,69.01
2018-12-11T17:16:13.845Z,69.25
2018-12-11T17:18:41.758Z,69.68
2018-12-11T17:21:09.688Z,69.68
2018-12-11T17:23:37.452Z,69.47
2018-12-11T17:26:05.222Z,69.48
2018-12-11T17:28:32.977Z,69.94
2018-12-11T17:31:00.767Z,70.05
2018-12-11T17:33:28.557Z,69.69
2018-12-11T17:35:56.247Z,69.80
2018-12-11T17:38:23.977Z,70.15
2018-12-11T17:40:51.806Z,68.62
2018-12-11T17:43:19.541Z,67.14
2018-12-11T17:45:47.317Z,65.97
2018-12-11T17:48:15.532Z,64.94
2018-12-11T17:50:44.304Z,66.21
2018-12-11T17:53:12.105Z,66.82
2018-12-11T17:55:39.862Z,67.50
2018-12-11T17:58:07.603Z,67.72
2018-12-11T18:00:35.419Z,68.18
2018-12-11T18:03:03.521Z,68.43
2018-12-11T18:05:31.254Z,67.90
2018-12-11T18:07:59.317Z,68.11
2018-12-11T18:10:27.081Z,68.28
2018-12-11T18:12:54.845Z,68.27
2018-12-11T18:15:22.670Z,68.15
2018-12-11T18:17:50.462Z,68.01
2018-12-11T18:20:18.229Z,67.93
2018-12-11T18:22:46.027Z,68.38
2018-12-11T18:25:13.901Z,66.71
2018-12-11T18:27:41.669Z,66.58
2018-12-11T18:30:09.469Z,66.17
2018-12-11T18:32:37.209Z,66.07
2018-12-11T18:35:05.943Z,65.69
2018-12-11T18:37:33.729Z,65.94
2018-12-11T18:40:01.565Z,65.73
2018-12-11T18:42:29.328Z,65.87
2018-12-11T18:45:03.057Z,65.88
2018-12-11T18:47:26.935Z,66.25
2018-12-11T18:49:54.698Z,66.67
2018-12-11T18:52:22.420Z,66.50
2018-12-11T18:54:50.124Z,66.54
2018-12-11T18:57:17.824Z,66.62
2018-12-11T18:59:45.614Z,66.59
2018-12-11T19:02:13.343Z,66.34
2018-12-11T19:04:41.257Z,66.17
2018-12-11T19:07:08.988Z,65.74
2018-12-11T19:09:36.749Z,64.82
2018-12-11T19:12:04.514Z,65.25
2018-12-11T19:14:32.320Z,65.68
2018-12-11T19:17:00.145Z,65.80
2018-12-11T19:19:27.904Z,66.20
2018-12-11T19:21:55.710Z,66.00
2018-12-11T19:24:36.077Z,66.05
2018-12-11T19:27:03.836Z,66.85
2018-12-11T19:29:31.653Z,66.68
2018-12-11T19:32:00.055Z,66.60
2018-12-11T19:34:27.867Z,66.63
2018-12-11T19:36:55.705Z,66.84
2018-12-11T19:39:24.053Z,66.78
2018-12-11T19:41:51.830Z,66.89
2018-12-11T19:44:19.614Z,67.05
2018-12-11T19:46:47.404Z,67.72
2018-12-11T19:49:15.162Z,67.06
2018-12-11T19:51:42.916Z,66.93
2018-12-11T19:54:10.644Z,67.03
2018-12-11T19:56:38.479Z,66.61
2018-12-11T19:59:06.501Z,66.76
2018-12-11T20:01:34.693Z,66.62
2018-12-11T20:04:02.528Z,66.42
2018-12-11T20:06:30.252Z,66.94
2018-12-11T20:08:58.001Z,66.91
2018-12-11T20:11:26.096Z,67.06
2018-12-11T20:13:54.013Z,66.88
2018-12-11T20:16:21.704Z,66.73
2018-12-11T20:18:50.093Z,67.21
2018-12-11T20:21:18.780Z,66.90
2018-12-11T20:23:46.500Z,67.00
2018-12-11T20:26:14.244Z,67.30
2018-12-11T20:28:43.045Z,67.43
2018-12-11T20:31:10.767Z,67.90
2018-12-11T20:33:38.691Z,69.05
2018-12-11T20:36:06.456Z,68.93
2018-12-11T20:38:34.188Z,68.98
2018-12-11T20:41:01.954Z,69.44
2018-12-11T20:43:30.210Z,69.12
2018-12-11T20:45:58.088Z,68.79
2018-12-11T20:48:25.999Z,69.00
2018-12-11T20:50:53.825Z,68.83
2018-12-11T20:53:21.552Z,68.87
2018-12-11T20:55:49.603Z,68.82
2018-12-11T20:58:17.329Z,68.74
2018-12-11T21:00:45.122Z,68.71
2018-12-11T21:03:12.933Z,68.66
2018-12-11T21:05:40.648Z,68.80
2018-12-11T21:08:08.409Z,68.60
2018-12-11T21:10:36.173Z,68.74
2018-12-11T21:13:04.256Z,68.84
2018-12-11T21:15:32.037Z,68.95
2018-12-11T21:17:59.794Z,69.09
2018-12-11T21:20:27.641Z,68.98
2018-12-11T21:22:55.412Z,68.92
2018-12-11T21:25:23.119Z,69.16
2018-12-11T21:27:50.856Z,69.20
2018-12-11T21:30:19.660Z,69.10
2018-12-11T21:32:47.955Z,68.94
2018-12-11T21:35:15.724Z,68.90
2018-12-11T21:37:43.424Z,68.76
2018-12-11T21:40:11.164Z,68.49
2018-12-11T21:42:38.886Z,68.52
2018-12-11T21:45:06.878Z,68.43
2018-12-11T21:47:35.275Z,68.14
2018-12-11T21:50:04.021Z,68.13
2018-12-11T21:52:31.810Z,67.99
2018-12-11T21:54:59.582Z,67.70
2018-12-11T21:57:27.318Z,67.69
2018-12-11T21:59:55.086Z,67.77
2018-12-11T22:02:22.850Z,67.82
2018-12-11T22:04:50.629Z,67.61
2018-12-11T22:07:18.388Z,67.94
2018-12-11T22:09:48.781Z,67.91
2018-12-11T22:12:17.080Z,68.00
2018-12-11T22:14:45.478Z,68.25
2018-12-11T22:17:13.261Z,68.44
2018-12-11T22:19:40.975Z,68.22
2018-12-11T22:22:08.712Z,68.49
2018-12-11T22:24:36.444Z,68.31
2018-12-11T22:27:04.334Z,68.33
2018-12-11T22:29:32.055Z,68.42
2018-12-11T22:31:59.824Z,68.29
2018-12-11T22:34:27.585Z,68.40
2018-12-11T22:36:55.334Z,68.40
2018-12-11T22:39:23.815Z,68.40
2018-12-11T22:41:51.721Z,68.46
2018-12-11T22:44:19.458Z,68.33
2018-12-11T22:46:47.213Z,68.37
2018-12-11T22:49:14.891Z,68.56
2018-12-11T22:51:43.065Z,68.44
2018-12-11T22:54:11.281Z,68.34
2018-12-11T22:56:39.040Z,68.31
2018-12-11T22:59:06.777Z,68.38
2018-12-11T23:01:35.432Z,68.58
2018-12-11T23:04:03.273Z,68.34
2018-12-11T23:06:30.988Z,68.38
2018-12-11T23:08:59.426Z,68.55
2018-12-11T23:11:27.173Z,69.24
2018-12-11T23:13:54.878Z,68.76
2018-12-11T23:16:22.523Z,68.77
2018-12-11T23:18:50.194Z,68.85
2018-12-11T23:21:17.859Z,68.73
2018-12-11T23:23:45.782Z,68.99
2018-12-11T23:26:14.367Z,68.97
2018-12-11T23:28:42.758Z,68.96
2018-12-11T23:31:11.374Z,68.75
2018-12-11T23:33:39.075Z,69.10
2018-12-11T23:36:06.753Z,68.62
2018-12-11T23:38:34.403Z,68.75
2018-12-11T23:41:02.095Z,68.79
2018-12-11T23:43:29.783Z,69.02
2018-12-11T23:45:57.502Z,68.71
2018-12-11T23:48:25.148Z,68.98
2018-12-11T23:50:52.793Z,68.78
2018-12-11T23:53:20.471Z,69.03
2018-12-11T23:55:48.186Z,68.99
2018-12-11T23:58:15.845Z,69.03
